createdAt,value
2019-03-27T00:01:25.363Z,10.60
2019-03-27T00:04:14.184Z,10.69
2019-03-27T00:07:02.979Z,10.73
2019-03-27T00:09:51.788Z,10.74
2019-03-27T00:12:40.586Z,10.74
2019-03-27T00:15:29.401Z,10.80
2019-03-27T00:18:18.203Z,10.74
2019-03-27T00:21:07.033Z,10.73
2019-03-27T00:24:03.395Z,10.63
2019-03-27T00:26:52.240Z,10.68
2019-03-27T00:29:41.028Z,9.92
2019-03-27T00:32:29.849Z,9.10
2019-03-27T00:35:18.666Z,10.60
2019-03-27T00:38:07.464Z,10.54
2019-03-27T00:41:15.303Z,10.52
2019-03-27T00:44:23.125Z,10.55
2019-03-27T00:47:05.211Z,10.38
2019-03-27T00:49:54.017Z,10.42
2019-03-27T00:52:35.813Z,10.20
2019-03-27T00:55:43.619Z,10.28
2019-03-27T00:58:32.420Z,10.19
2019-03-27T01:01:21.233Z,10.10
2019-03-27T01:04:10.042Z,9.59
2019-03-27T01:06:58.848Z,9.98
2019-03-27T01:09:47.668Z,10.04
2019-03-27T01:12:36.465Z,10.23
2019-03-27T01:15:34.339Z,10.07
2019-03-27T01:18:15.813Z,9.94
2019-03-27T01:21:05.225Z,10.09
2019-03-27T01:23:54.021Z,10.05
2019-03-27T01:26:42.843Z,8.65
2019-03-27T01:29:31.646Z,9.80
2019-03-27T01:32:20.463Z,9.79
2019-03-27T01:35:09.335Z,9.67
2019-03-27T01:40:52.874Z,9.75
2019-03-27T01:43:41.701Z,9.63
2019-03-27T01:46:30.498Z,9.28
2019-03-27T01:49:12.585Z,9.27
2019-03-27T01:52:01.399Z,9.26
2019-03-27T01:54:50.194Z,7.44
2019-03-27T01:57:39.014Z,9.36
2019-03-27T02:00:27.809Z,7.86
2019-03-27T02:03:16.628Z,9.60
2019-03-27T02:06:05.500Z,9.18
2019-03-27T02:08:54.325Z,9.30
2019-03-27T02:11:43.207Z,9.64
2019-03-27T02:17:39.759Z,9.63
2019-03-27T02:20:28.560Z,9.69
2019-03-27T02:23:17.362Z,9.65
2019-03-27T02:26:06.236Z,8.27
2019-03-27T02:28:55.045Z,9.13
2019-03-27T02:31:43.857Z,9.56
2019-03-27T02:34:32.671Z,9.53
2019-03-27T02:37:21.473Z,9.53
2019-03-27T02:40:10.991Z,9.36
2019-03-27T02:42:59.824Z,9.58
2019-03-27T02:45:48.649Z,9.28
2019-03-27T02:48:37.443Z,9.18
2019-03-27T02:51:18.902Z,9.04
2019-03-27T02:54:07.703Z,9.12
2019-03-27T02:56:56.520Z,9.07
2019-03-27T02:59:45.352Z,8.08
2019-03-27T03:02:34.143Z,9.26
2019-03-27T03:05:22.961Z,9.13
2019-03-27T03:08:11.754Z,9.06
2019-03-27T03:11:00.579Z,8.99
2019-03-27T03:13:49.387Z,8.94
2019-03-27T03:16:42.854Z,8.56
2019-03-27T03:19:28.735Z,9.29
2019-03-27T03:22:17.523Z,9.28
2019-03-27T03:25:06.616Z,9.00
2019-03-27T03:30:49.271Z,9.01
2019-03-27T03:33:38.067Z,9.21
2019-03-27T03:36:26.878Z,9.20
2019-03-27T03:39:15.948Z,9.01
2019-03-27T03:42:04.777Z,9.14
2019-03-27T03:44:53.552Z,9.11
2019-03-27T03:47:42.436Z,9.14
2019-03-27T03:50:43.072Z,9.12
2019-03-27T03:53:32.132Z,8.99
2019-03-27T03:56:41.865Z,9.04
2019-03-27T03:59:30.932Z,8.97
2019-03-27T04:02:20.124Z,8.88
2019-03-27T04:05:28.671Z,9.06
2019-03-27T04:08:17.466Z,9.15
2019-03-27T04:11:06.276Z,9.09
2019-03-27T04:13:55.169Z,9.46
2019-03-27T04:16:43.954Z,9.64
2019-03-27T04:19:32.747Z,9.74
2019-03-27T04:22:21.568Z,9.67
2019-03-27T04:25:10.401Z,9.72
2019-03-27T04:27:59.199Z,9.81
2019-03-27T04:30:48.025Z,9.85
2019-03-27T04:33:37.082Z,9.82
2019-03-27T04:36:25.910Z,8.36
2019-03-27T04:39:14.700Z,9.34
2019-03-27T04:42:03.528Z,9.75
2019-03-27T04:44:52.322Z,8.28
2019-03-27T04:50:28.333Z,9.51
2019-03-27T04:53:17.129Z,9.26
2019-03-27T04:56:05.947Z,8.74
2019-03-27T04:58:54.747Z,8.44
2019-03-27T05:02:02.583Z,8.70
2019-03-27T05:08:00.767Z,8.80
2019-03-27T05:10:49.558Z,8.72
2019-03-27T05:13:38.380Z,7.71
2019-03-27T05:16:27.180Z,8.17
2019-03-27T05:19:16.000Z,6.84
2019-03-27T05:22:04.798Z,7.97
2019-03-27T05:24:53.620Z,8.10
2019-03-27T05:27:42.432Z,8.09
2019-03-27T05:30:31.309Z,6.73
2019-03-27T05:33:20.102Z,7.23
2019-03-27T05:36:08.924Z,7.41
2019-03-27T05:38:57.729Z,7.52
2019-03-27T05:41:46.540Z,6.95
2019-03-27T05:44:35.344Z,7.67
2019-03-27T05:47:24.158Z,7.77
2019-03-27T05:50:13.043Z,7.79
2019-03-27T05:52:55.023Z,6.28
2019-03-27T05:55:44.901Z,7.77
2019-03-27T05:58:33.727Z,7.71
2019-03-27T06:04:16.823Z,7.82
2019-03-27T06:07:05.651Z,7.95
2019-03-27T06:09:54.464Z,7.00
2019-03-27T06:12:43.292Z,6.59
2019-03-27T06:15:32.106Z,8.10
2019-03-27T06:18:20.932Z,8.13
2019-03-27T06:21:09.752Z,8.28
2019-03-27T06:23:58.550Z,8.28
2019-03-27T06:26:47.371Z,8.39
2019-03-27T06:29:36.165Z,8.50
2019-03-27T06:32:24.987Z,7.21
2019-03-27T06:35:13.847Z,7.83
2019-03-27T06:38:02.750Z,8.85
2019-03-27T06:40:51.570Z,8.54
2019-03-27T06:43:40.388Z,9.09
2019-03-27T06:46:29.203Z,7.86
2019-03-27T06:49:37.061Z,9.25
2019-03-27T06:52:19.129Z,9.52
2019-03-27T06:58:23.146Z,9.42
2019-03-27T07:01:11.977Z,9.56
2019-03-27T07:04:10.467Z,8.78
2019-03-27T07:06:51.340Z,9.64
2019-03-27T07:09:42.482Z,9.77
2019-03-27T07:12:30.967Z,9.91
2019-03-27T07:15:20.080Z,8.40
2019-03-27T07:18:08.908Z,10.16
2019-03-27T07:21:16.733Z,10.31
2019-03-27T07:24:05.571Z,10.45
2019-03-27T07:26:54.370Z,9.24
2019-03-27T07:29:43.182Z,10.81
2019-03-27T07:32:32.022Z,11.07
2019-03-27T07:35:20.820Z,11.24
2019-03-27T07:38:09.644Z,11.20
2019-03-27T07:40:58.442Z,9.76
2019-03-27T07:43:47.281Z,11.09
2019-03-27T07:46:36.093Z,10.03
2019-03-27T07:49:24.915Z,11.34
2019-03-27T07:52:13.714Z,11.65
2019-03-27T07:55:02.536Z,11.78
2019-03-27T08:00:59.089Z,11.04
2019-03-27T08:03:47.898Z,11.66
2019-03-27T08:06:36.718Z,11.67
2019-03-27T08:09:25.521Z,11.99
2019-03-27T08:12:14.336Z,11.17
2019-03-27T08:18:17.930Z,11.92
2019-03-27T08:21:06.757Z,12.91
2019-03-27T08:23:55.556Z,12.60
2019-03-27T08:26:44.389Z,13.14
2019-03-27T08:29:33.182Z,12.55
2019-03-27T08:32:22.012Z,13.06
2019-03-27T08:38:39.388Z,13.21
2019-03-27T08:41:28.185Z,13.24
2019-03-27T08:44:17.010Z,13.47
2019-03-27T08:47:05.818Z,13.89
2019-03-27T08:49:54.643Z,12.78
2019-03-27T08:52:36.140Z,13.88
2019-03-27T08:55:24.961Z,13.72
2019-03-27T08:58:13.773Z,13.99
2019-03-27T09:01:02.599Z,13.71
2019-03-27T09:03:51.398Z,14.32
2019-03-27T09:06:40.298Z,13.53
2019-03-27T09:09:29.102Z,14.49
2019-03-27T09:12:17.928Z,14.78
2019-03-27T09:15:27.630Z,14.86
2019-03-27T09:18:17.020Z,14.26
2019-03-27T09:21:06.971Z,14.83
2019-03-27T09:23:55.797Z,14.55
2019-03-27T09:26:44.685Z,14.89
2019-03-27T09:29:33.507Z,14.26
2019-03-27T09:32:22.331Z,14.47
2019-03-27T09:38:39.554Z,14.55
2019-03-27T09:41:28.367Z,15.03
2019-03-27T09:44:17.184Z,15.27
2019-03-27T09:47:06.019Z,15.28
2019-03-27T09:49:54.820Z,14.98
2019-03-27T09:52:36.544Z,15.32
2019-03-27T09:58:20.199Z,14.28
2019-03-27T10:01:09.053Z,13.58
2019-03-27T10:03:57.850Z,14.08
2019-03-27T10:06:46.677Z,12.44
2019-03-27T10:09:35.497Z,13.87
2019-03-27T10:12:24.371Z,13.94
2019-03-27T10:15:13.531Z,14.21
2019-03-27T10:18:02.367Z,14.37
2019-03-27T10:20:51.173Z,14.61
2019-03-27T10:23:39.999Z,14.70
2019-03-27T10:26:28.824Z,13.63
2019-03-27T10:29:17.645Z,14.88
2019-03-27T10:32:06.472Z,15.37
2019-03-27T10:34:55.276Z,15.60
2019-03-27T10:37:44.073Z,15.92
2019-03-27T10:40:32.895Z,15.79
2019-03-27T10:43:21.699Z,16.14
2019-03-27T10:46:10.523Z,15.94
2019-03-27T10:48:59.336Z,16.32
2019-03-27T10:51:41.263Z,16.10
2019-03-27T10:54:30.087Z,14.04
2019-03-27T10:57:18.913Z,14.21
2019-03-27T11:00:28.928Z,12.36
2019-03-27T11:03:17.991Z,13.65
2019-03-27T11:06:06.786Z,13.52
2019-03-27T11:08:55.602Z,13.37
2019-03-27T11:11:44.441Z,14.08
2019-03-27T11:14:52.293Z,13.54
2019-03-27T11:19:55.256Z,14.11
2019-03-27T11:23:03.082Z,14.85
2019-03-27T11:25:33.341Z,14.27
2019-03-27T11:28:41.163Z,16.02
2019-03-27T11:31:29.985Z,16.30
2019-03-27T11:34:18.791Z,16.92
2019-03-27T11:37:07.615Z,17.43
2019-03-27T11:39:56.412Z,17.89
2019-03-27T11:42:45.236Z,17.33
2019-03-27T11:45:34.059Z,17.26
2019-03-27T11:48:22.854Z,17.30
2019-03-27T11:51:11.677Z,17.38
2019-03-27T11:53:53.814Z,17.54
2019-03-27T11:56:42.645Z,17.43
2019-03-27T11:59:31.448Z,17.25
2019-03-27T12:02:20.267Z,17.47
2019-03-27T12:05:09.136Z,17.63
2019-03-27T12:07:57.964Z,16.51
2019-03-27T12:10:47.630Z,16.22
2019-03-27T12:13:36.449Z,14.06
2019-03-27T12:16:25.263Z,15.65
2019-03-27T12:19:14.219Z,15.87
2019-03-27T12:25:10.920Z,16.57
2019-03-27T12:27:59.739Z,17.21
2019-03-27T12:30:48.577Z,16.37
2019-03-27T12:33:37.380Z,17.62
2019-03-27T12:36:26.264Z,18.30
2019-03-27T12:39:15.071Z,18.19
2019-03-27T12:42:03.896Z,16.86
2019-03-27T12:44:52.715Z,16.72
2019-03-27T12:47:41.584Z,14.79
2019-03-27T12:50:30.405Z,15.57
2019-03-27T12:53:11.638Z,15.60
2019-03-27T12:56:00.468Z,14.60
2019-03-27T12:58:49.274Z,14.74
2019-03-27T13:01:38.087Z,15.52
2019-03-27T13:04:26.902Z,15.72
2019-03-27T13:07:15.724Z,14.59
2019-03-27T13:10:25.434Z,13.65
2019-03-27T13:13:14.259Z,16.29
2019-03-27T13:19:10.885Z,17.54
2019-03-27T13:21:59.711Z,18.35
2019-03-27T13:25:07.554Z,18.46
2019-03-27T13:27:56.385Z,16.55
2019-03-27T13:30:25.870Z,18.42
2019-03-27T13:33:14.683Z,18.74
2019-03-27T13:36:03.507Z,18.08
2019-03-27T13:38:52.306Z,17.44
2019-03-27T13:41:41.149Z,16.63
2019-03-27T13:44:36.723Z,17.02
2019-03-27T13:47:20.509Z,16.48
2019-03-27T13:50:30.220Z,16.91
2019-03-27T13:53:19.036Z,17.12
2019-03-27T13:56:00.746Z,15.98
2019-03-27T13:58:49.545Z,16.11
2019-03-27T14:01:38.687Z,16.47
2019-03-27T14:04:27.545Z,17.12
2019-03-27T14:07:16.347Z,16.22
2019-03-27T14:10:07.097Z,17.31
2019-03-27T14:12:55.912Z,17.79
2019-03-27T14:15:44.734Z,18.17
2019-03-27T14:18:33.568Z,18.88
2019-03-27T14:21:23.404Z,18.73
2019-03-27T14:24:12.909Z,19.94
2019-03-27T14:27:01.723Z,19.16
2019-03-27T14:29:50.552Z,19.02
2019-03-27T14:32:39.356Z,18.46
2019-03-27T14:35:28.181Z,18.22
2019-03-27T14:38:16.998Z,20.13
2019-03-27T14:41:05.821Z,20.02
2019-03-27T14:43:54.640Z,20.45
2019-03-27T14:46:43.452Z,19.08
2019-03-27T14:49:32.273Z,19.40
2019-03-27T14:52:14.100Z,17.61
2019-03-27T14:55:03.519Z,18.51
2019-03-27T14:57:53.473Z,20.10
2019-03-27T15:00:42.270Z,20.15
2019-03-27T15:03:31.090Z,20.68
2019-03-27T15:06:19.894Z,19.19
2019-03-27T15:09:09.384Z,18.94
2019-03-27T15:11:58.193Z,19.58
2019-03-27T15:14:47.019Z,20.65
2019-03-27T15:17:35.893Z,20.43
2019-03-27T15:20:24.713Z,20.47
2019-03-27T15:23:13.525Z,20.08
2019-03-27T15:26:02.414Z,19.60
2019-03-27T15:28:51.272Z,19.53
2019-03-27T15:31:40.031Z,19.14
2019-03-27T15:34:28.865Z,18.80
2019-03-27T15:37:17.744Z,17.50
2019-03-27T15:40:06.867Z,19.12
2019-03-27T15:42:55.733Z,17.70
2019-03-27T15:45:44.571Z,18.61
2019-03-27T15:48:33.426Z,17.79
2019-03-27T15:51:15.328Z,20.16
2019-03-27T15:54:04.283Z,21.04
2019-03-27T15:56:53.116Z,20.52
2019-03-27T15:59:41.932Z,21.59
2019-03-27T16:02:30.734Z,19.88
2019-03-27T16:05:19.565Z,20.01
2019-03-27T16:08:08.383Z,20.66
2019-03-27T16:10:57.221Z,20.52
2019-03-27T16:13:46.010Z,20.56
2019-03-27T16:16:34.892Z,19.61
2019-03-27T16:19:23.646Z,19.94
2019-03-27T16:22:12.468Z,18.59
2019-03-27T16:25:01.283Z,16.71
2019-03-27T16:27:50.088Z,17.08
2019-03-27T16:30:38.919Z,16.62
2019-03-27T16:33:27.716Z,18.12
2019-03-27T16:36:16.541Z,18.13
2019-03-27T16:39:26.260Z,17.17
2019-03-27T16:42:15.087Z,16.58
2019-03-27T16:45:24.819Z,14.21
2019-03-27T16:48:13.824Z,15.05
2019-03-27T16:51:02.627Z,15.06
2019-03-27T16:53:44.736Z,15.38
2019-03-27T16:56:33.553Z,15.06
2019-03-27T16:59:22.374Z,14.90
2019-03-27T17:02:11.271Z,13.29
2019-03-27T17:05:00.095Z,14.35
2019-03-27T17:07:48.984Z,13.15
2019-03-27T17:10:37.779Z,14.75
2019-03-27T17:13:26.608Z,13.32
2019-03-27T17:16:15.496Z,14.34
2019-03-27T17:19:04.329Z,13.07
2019-03-27T17:21:53.134Z,13.92
2019-03-27T17:24:41.964Z,13.93
2019-03-27T17:27:30.790Z,13.33
2019-03-27T17:30:20.046Z,13.91
2019-03-27T17:33:08.875Z,12.45
2019-03-27T17:35:38.374Z,13.41
2019-03-27T17:41:34.932Z,13.70
2019-03-27T17:44:23.764Z,13.57
2019-03-27T17:47:12.650Z,12.23
2019-03-27T17:50:01.468Z,13.18
2019-03-27T17:52:42.941Z,11.87
2019-03-27T17:55:31.771Z,12.81
2019-03-27T17:58:20.589Z,12.72
2019-03-27T18:01:09.666Z,12.96
2019-03-27T18:03:58.491Z,12.73
2019-03-27T18:07:06.324Z,12.55
2019-03-27T18:09:55.169Z,12.36
2019-03-27T18:12:43.990Z,12.46
2019-03-27T18:15:32.791Z,12.40
2019-03-27T18:18:21.606Z,11.00
2019-03-27T18:21:10.409Z,12.44
2019-03-27T18:29:47.564Z,12.18
2019-03-27T18:32:36.359Z,12.00
2019-03-27T18:35:25.188Z,12.12
2019-03-27T18:38:13.987Z,11.36
2019-03-27T18:41:02.882Z,12.19
2019-03-27T18:43:51.680Z,11.84
2019-03-27T18:46:40.499Z,11.81
2019-03-27T18:49:29.303Z,11.57
2019-03-27T18:52:10.875Z,11.65
2019-03-27T18:54:59.679Z,11.61
2019-03-27T18:57:59.345Z,11.58
2019-03-27T19:00:39.353Z,10.05
2019-03-27T19:03:28.208Z,11.44
2019-03-27T19:06:17.041Z,11.49
2019-03-27T19:09:26.754Z,11.42
2019-03-27T19:12:15.576Z,9.92
2019-03-27T19:15:25.298Z,11.54
2019-03-27T19:18:14.095Z,10.06
2019-03-27T19:21:02.919Z,11.33
2019-03-27T19:23:51.727Z,11.24
2019-03-27T19:26:40.540Z,9.65
2019-03-27T19:29:29.339Z,11.21
2019-03-27T19:32:18.231Z,11.22
2019-03-27T19:35:07.095Z,11.22
2019-03-27T19:37:55.944Z,10.48
2019-03-27T19:40:44.805Z,9.66
2019-03-27T19:43:33.634Z,10.93
2019-03-27T19:46:22.442Z,10.56
2019-03-27T19:49:11.331Z,10.31
2019-03-27T19:52:00.133Z,10.24
2019-03-27T19:54:41.854Z,9.86
2019-03-27T19:57:30.925Z,10.18
2019-03-27T20:03:35.122Z,9.31
2019-03-27T20:06:43.160Z,10.21
2019-03-27T20:09:32.014Z,10.22
2019-03-27T20:12:20.832Z,9.75
2019-03-27T20:15:12.132Z,8.02
2019-03-27T20:18:00.435Z,9.58
2019-03-27T20:20:49.663Z,9.86
2019-03-27T20:23:38.489Z,9.68
2019-03-27T20:29:35.113Z,9.81
2019-03-27T20:32:23.916Z,9.65
2019-03-27T20:35:12.798Z,9.65
2019-03-27T20:38:01.598Z,9.48
2019-03-27T20:40:43.139Z,9.38
2019-03-27T20:43:31.895Z,9.31
2019-03-27T20:49:14.977Z,9.26
2019-03-27T20:52:22.811Z,9.47
2019-03-27T20:55:11.771Z,9.56
2019-03-27T20:58:00.603Z,9.39
2019-03-27T21:01:08.811Z,9.04
2019-03-27T21:03:57.642Z,8.64
2019-03-27T21:06:46.467Z,8.84
2019-03-27T21:09:35.267Z,8.96
2019-03-27T21:12:24.090Z,8.88
2019-03-27T21:15:12.949Z,8.87
2019-03-27T21:18:01.805Z,8.94
2019-03-27T21:20:50.620Z,8.87
2019-03-27T21:23:39.443Z,7.37
2019-03-27T21:26:28.318Z,8.63
2019-03-27T21:29:17.123Z,8.65
2019-03-27T21:32:05.940Z,8.70
2019-03-27T21:35:13.759Z,8.49
2019-03-27T21:37:53.513Z,8.55
2019-03-27T21:40:42.360Z,8.30
2019-03-27T21:43:31.164Z,8.05
2019-03-27T21:49:27.732Z,8.03
2019-03-27T21:52:16.520Z,8.24
2019-03-27T21:55:24.666Z,8.37
2019-03-27T21:58:13.508Z,8.38
2019-03-27T22:01:02.379Z,7.53
2019-03-27T22:03:51.216Z,8.28
2019-03-27T22:06:40.029Z,7.95
2019-03-27T22:09:28.824Z,8.27
2019-03-27T22:12:17.642Z,8.20
2019-03-27T22:15:25.756Z,8.02
2019-03-27T22:18:14.580Z,8.08
2019-03-27T22:21:03.384Z,7.55
2019-03-27T22:23:52.242Z,6.32
2019-03-27T22:26:41.049Z,7.49
2019-03-27T22:29:29.861Z,7.35
2019-03-27T22:32:18.923Z,7.43
2019-03-27T22:38:27.303Z,7.85
2019-03-27T22:41:16.095Z,7.74
2019-03-27T22:44:04.910Z,7.98
2019-03-27T22:46:53.730Z,6.60
2019-03-27T22:49:42.558Z,8.32
2019-03-27T22:52:31.346Z,8.48
2019-03-27T22:55:20.170Z,8.45
2019-03-27T22:58:08.962Z,8.44
2019-03-27T23:03:53.747Z,8.33
2019-03-27T23:06:42.550Z,8.50
2019-03-27T23:09:31.367Z,8.64
2019-03-27T23:15:27.984Z,8.85
2019-03-27T23:18:17.442Z,8.91
2019-03-27T23:21:25.280Z,8.85
2019-03-27T23:24:14.070Z,9.01
2019-03-27T23:27:02.908Z,7.81
2019-03-27T23:29:51.695Z,9.00
2019-03-27T23:32:40.522Z,9.05
2019-03-27T23:35:29.319Z,9.14
2019-03-27T23:38:18.134Z,9.11
2019-03-27T23:40:59.677Z,9.05
2019-03-27T23:43:49.080Z,9.02
2019-03-27T23:46:39.012Z,9.08
2019-03-27T23:49:27.809Z,7.36
2019-03-27T23:52:16.630Z,9.00
2019-03-27T23:58:34.499Z,9.06
